createdAt,value
2022-09-04T00:02:31.533Z,83.73
2022-09-04T00:05:20.467Z,83.73
2022-09-04T00:07:52.220Z,84.05
2022-09-04T00:10:38.237Z,84.13
2022-09-04T00:13:12.318Z,84.50
2022-09-04T00:15:47.599Z,84.53
2022-09-04T00:18:34.592Z,84.68
2022-09-04T00:21:05.702Z,84.61
2022-09-04T00:23:46.810Z,84.45
2022-09-04T00:26:36.912Z,84.49
2022-09-04T00:29:14.829Z,84.46
2022-09-04T00:31:52.310Z,84.60
2022-09-04T00:34:39.144Z,84.47
2022-09-04T00:37:13.195Z,84.38
2022-09-04T00:39:53.657Z,84.14
2022-09-04T00:42:43.048Z,84.22
2022-09-04T00:45:32.274Z,84.38
2022-09-04T00:48:20.873Z,84.52
2022-09-04T00:51:26.491Z,84.66
2022-09-04T00:54:45.756Z,84.42
2022-09-04T00:58:04.938Z,84.37
2022-09-04T01:00:33.376Z,84.77
2022-09-04T01:03:19.460Z,84.73
2022-09-04T01:06:04.127Z,84.63
2022-09-04T01:09:04.740Z,84.27
2022-09-04T01:11:49.752Z,84.26
2022-09-04T01:14:48.631Z,83.93
2022-09-04T01:17:23.360Z,84.02
2022-09-04T01:20:20.358Z,84.27
2022-09-04T01:23:00.537Z,84.16
2022-09-04T01:25:50.080Z,83.97
2022-09-04T01:28:30.181Z,84.09
2022-09-04T01:31:19.765Z,84.05
2022-09-04T01:34:06.135Z,84.20
2022-09-04T01:36:49.564Z,84.07
2022-09-04T01:39:22.315Z,84.13
2022-09-04T01:42:29.126Z,84.32
2022-09-04T01:44:57.528Z,84.15
2022-09-04T01:47:51.500Z,83.83
2022-09-04T01:50:27.095Z,84.09
2022-09-04T01:53:13.480Z,83.86
2022-09-04T01:56:09.891Z,84.05
2022-09-04T01:58:40.896Z,84.33
2022-09-04T02:01:56.813Z,84.25
2022-09-04T02:04:40.745Z,84.13
2022-09-04T02:07:31.092Z,83.99
2022-09-04T02:10:02.271Z,83.74
2022-09-04T02:12:53.354Z,83.93
2022-09-04T02:15:41.418Z,84.07
2022-09-04T02:18:36.393Z,83.95
2022-09-04T02:21:47.667Z,84.01
2022-09-04T02:24:31.006Z,84.09
2022-09-04T02:27:13.383Z,84.24
2022-09-04T02:29:52.890Z,84.24
2022-09-04T02:32:29.150Z,84.43
2022-09-04T02:34:59.918Z,84.22
2022-09-04T02:37:59.315Z,84.32
2022-09-04T02:40:36.404Z,84.12
2022-09-04T02:43:07.309Z,84.32
2022-09-04T02:45:45.276Z,84.17
2022-09-04T02:48:35.480Z,83.85
2022-09-04T02:51:18.819Z,83.72
2022-09-04T02:54:16.783Z,84.01
2022-09-04T02:57:24.558Z,83.76
2022-09-04T03:00:13.411Z,83.68
2022-09-04T03:03:05.830Z,83.85
2022-09-04T03:05:42.299Z,83.61
2022-09-04T03:08:24.053Z,84.26
2022-09-04T03:11:05.246Z,84.32
2022-09-04T03:13:47.321Z,84.21
2022-09-04T03:16:28.028Z,83.94
2022-09-04T03:19:19.812Z,84.21
2022-09-04T03:22:14.121Z,84.21
2022-09-04T03:25:13.151Z,84.02
2022-09-04T03:27:41.504Z,83.79
2022-09-04T03:30:12.452Z,83.96
2022-09-04T03:33:12.397Z,84.12
2022-09-04T03:35:59.426Z,83.90
2022-09-04T03:38:41.236Z,83.72
2022-09-04T03:41:59.307Z,83.60
2022-09-04T03:44:52.535Z,83.58
2022-09-04T03:47:46.686Z,83.70
2022-09-04T03:50:49.576Z,83.57
2022-09-04T03:53:56.486Z,83.34
2022-09-04T03:56:42.503Z,83.49
2022-09-04T03:59:25.364Z,83.34
2022-09-04T04:02:10.159Z,83.56
2022-09-04T04:05:09.292Z,83.51
2022-09-04T04:08:04.782Z,83.34
2022-09-04T04:10:33.928Z,83.05
2022-09-04T04:13:39.438Z,83.51
2022-09-04T04:16:41.894Z,83.38
2022-09-04T04:19:28.851Z,83.37
2022-09-04T04:22:09.133Z,83.30
2022-09-04T04:24:48.237Z,83.04
2022-09-04T04:27:25.770Z,83.28
2022-09-04T04:29:53.738Z,83.06
2022-09-04T04:32:42.261Z,82.79
2022-09-04T04:35:25.503Z,83.11
2022-09-04T04:38:08.839Z,83.02
2022-09-04T04:40:39.537Z,83.09
2022-09-04T04:43:26.921Z,83.31
2022-09-04T04:46:20.431Z,83.61
2022-09-04T04:49:17.442Z,83.14
2022-09-04T04:52:33.868Z,83.41
2022-09-04T04:55:31.447Z,83.32
2022-09-04T04:58:24.495Z,83.58
2022-09-04T05:01:12.165Z,83.69
2022-09-04T05:04:09.411Z,83.88
2022-09-04T05:06:57.328Z,83.62
2022-09-04T05:09:50.581Z,83.48
2022-09-04T05:12:48.749Z,83.43
2022-09-04T05:15:33.147Z,83.60
2022-09-04T05:18:45.603Z,83.50
2022-09-04T05:21:39.689Z,83.13
2022-09-04T05:24:32.743Z,82.97
2022-09-04T05:27:10.854Z,82.59
2022-09-04T05:30:08.703Z,82.78
2022-09-04T05:32:50.684Z,82.37
2022-09-04T05:35:35.562Z,82.31
2022-09-04T05:38:12.713Z,82.21
2022-09-04T05:40:46.668Z,82.11
2022-09-04T05:43:42.347Z,81.97
2022-09-04T05:46:52.210Z,81.99
2022-09-04T05:49:20.392Z,82.26
2022-09-04T05:52:22.524Z,81.74
2022-09-04T05:55:06.643Z,81.62
2022-09-04T05:57:34.689Z,81.74
2022-09-04T06:00:08.417Z,81.81
2022-09-04T06:03:04.610Z,81.73
2022-09-04T06:05:39.331Z,81.79
2022-09-04T06:08:40.851Z,81.75
2022-09-04T06:11:39.922Z,81.79
2022-09-04T06:14:23.304Z,81.84
2022-09-04T06:17:06.343Z,81.71
2022-09-04T06:19:53.112Z,81.63
2022-09-04T06:22:26.747Z,81.20
2022-09-04T06:25:14.011Z,81.35
2022-09-04T06:27:55.863Z,81.15
2022-09-04T06:30:30.675Z,81.32
2022-09-04T06:33:03.357Z,80.81
2022-09-04T06:36:07.099Z,80.37
2022-09-04T06:39:03.119Z,80.30
2022-09-04T06:41:49.505Z,80.36
2022-09-04T06:44:32.965Z,79.95
2022-09-04T06:47:27.269Z,79.77
2022-09-04T06:49:55.170Z,79.85
2022-09-04T06:52:30.934Z,79.33
2022-09-04T06:55:06.159Z,79.02
2022-09-04T06:57:52.799Z,79.04
2022-09-04T07:00:20.975Z,79.22
2022-09-04T07:03:00.504Z,79.20
2022-09-04T07:05:38.111Z,79.43
2022-09-04T07:08:30.930Z,79.35
2022-09-04T07:11:22.033Z,78.67
2022-09-04T07:14:16.560Z,78.41
2022-09-04T07:16:49.584Z,78.26
2022-09-04T07:19:48.531Z,78.31
2022-09-04T07:22:43.970Z,78.09
2022-09-04T07:26:03.678Z,77.76
2022-09-04T07:29:29.736Z,77.94
2022-09-04T07:32:08.544Z,77.54
2022-09-04T07:35:05.096Z,77.41
2022-09-04T07:37:59.225Z,76.71
2022-09-04T07:40:53.418Z,76.00
2022-09-04T07:43:36.906Z,76.16
2022-09-04T07:46:22.870Z,75.75
2022-09-04T07:49:13.005Z,75.16
2022-09-04T07:52:03.279Z,75.38
2022-09-04T07:54:49.893Z,75.21
2022-09-04T07:57:32.239Z,75.42
2022-09-04T08:00:15.215Z,74.83
2022-09-04T08:03:17.095Z,74.17
2022-09-04T08:06:14.298Z,73.67
2022-09-04T08:09:07.159Z,72.87
2022-09-04T08:11:41.106Z,72.75
2022-09-04T08:14:48.023Z,73.35
2022-09-04T08:17:24.649Z,72.40
2022-09-04T08:20:23.351Z,73.06
2022-09-04T08:23:00.318Z,73.09
2022-09-04T08:25:44.791Z,72.00
2022-09-04T08:28:33.490Z,72.97
2022-09-04T08:31:20.988Z,72.69
2022-09-04T08:34:03.441Z,72.85
2022-09-04T08:36:38.323Z,72.32
2022-09-04T08:39:18.364Z,71.66
2022-09-04T08:41:52.639Z,71.26
2022-09-04T08:44:35.685Z,70.84
2022-09-04T08:47:28.438Z,70.77
2022-09-04T08:50:08.824Z,71.22
2022-09-04T08:52:39.400Z,70.01
2022-09-04T08:55:20.001Z,68.63
2022-09-04T08:58:22.926Z,70.05
2022-09-04T09:01:18.835Z,69.42
2022-09-04T09:04:20.778Z,67.39
2022-09-04T09:07:14.350Z,66.70
2022-09-04T09:10:00.749Z,67.93
2022-09-04T09:12:44.426Z,66.93
2022-09-04T09:15:31.611Z,66.70
2022-09-04T09:18:18.131Z,67.18
2022-09-04T09:21:26.273Z,66.33
2022-09-04T09:24:28.292Z,65.59
2022-09-04T09:27:12.078Z,65.92
2022-09-04T09:30:08.951Z,65.08
2022-09-04T09:33:22.465Z,65.74
2022-09-04T09:35:59.440Z,63.89
2022-09-04T09:38:52.817Z,64.43
2022-09-04T09:41:51.845Z,64.14
2022-09-04T09:44:26.973Z,64.03
2022-09-04T09:47:52.658Z,63.11
2022-09-04T09:50:40.218Z,61.30
2022-09-04T09:53:47.001Z,60.40
2022-09-04T09:56:36.711Z,60.50
2022-09-04T09:59:11.322Z,60.20
2022-09-04T10:01:39.312Z,58.46
2022-09-04T10:04:44.770Z,57.18
2022-09-04T10:07:14.841Z,57.00
2022-09-04T10:09:58.022Z,57.39
2022-09-04T10:13:04.004Z,57.20
2022-09-04T10:15:52.947Z,56.77
2022-09-04T10:19:10.472Z,56.38
2022-09-04T10:22:20.201Z,55.89
2022-09-04T10:25:06.680Z,55.07
2022-09-04T10:28:01.463Z,53.12
2022-09-04T10:30:43.026Z,53.48
2022-09-04T10:33:32.425Z,53.89
2022-09-04T10:36:34.375Z,51.53
2022-09-04T10:39:48.561Z,50.95
2022-09-04T10:42:55.593Z,50.06
2022-09-04T10:45:39.162Z,50.07
2022-09-04T10:48:16.292Z,50.37
2022-09-04T10:51:02.462Z,50.53
2022-09-04T10:53:51.357Z,52.22
2022-09-04T10:56:26.409Z,51.91
2022-09-04T10:59:10.408Z,51.16
2022-09-04T11:02:12.356Z,50.28
2022-09-04T11:05:07.891Z,50.13
2022-09-04T11:08:07.160Z,50.16
2022-09-04T11:11:18.443Z,50.24
2022-09-04T11:14:18.761Z,50.67
2022-09-04T11:16:52.514Z,51.80
2022-09-04T11:20:16.178Z,51.41
2022-09-04T11:23:13.214Z,51.72
2022-09-04T11:26:06.252Z,50.76
2022-09-04T11:28:52.576Z,50.94
2022-09-04T11:31:26.535Z,51.08
2022-09-04T11:34:33.267Z,50.37
2022-09-04T11:37:33.824Z,51.18
2022-09-04T11:40:20.237Z,50.72
2022-09-04T11:43:08.956Z,49.93
2022-09-04T11:45:43.179Z,51.05
2022-09-04T11:48:47.667Z,51.69
2022-09-04T11:51:43.213Z,51.60
2022-09-04T11:54:41.291Z,51.32
2022-09-04T11:57:15.501Z,51.40
2022-09-04T11:59:59.219Z,51.67
2022-09-04T12:02:29.793Z,51.12
2022-09-04T12:05:04.190Z,51.39
2022-09-04T12:07:56.951Z,51.15
2022-09-04T12:10:46.376Z,51.27
2022-09-04T12:13:44.076Z,51.22
2022-09-04T12:16:47.695Z,51.30
2022-09-04T12:19:53.180Z,51.32
2022-09-04T12:22:36.748Z,50.90
2022-09-04T12:25:10.776Z,50.76
2022-09-04T12:28:07.092Z,51.18
2022-09-04T12:31:12.565Z,51.50
2022-09-04T12:33:43.718Z,51.59
2022-09-04T12:36:42.573Z,51.22
2022-09-04T12:39:24.495Z,50.96
2022-09-04T12:42:05.007Z,50.62
2022-09-04T12:44:42.081Z,50.51
2022-09-04T12:47:28.794Z,50.28
2022-09-04T12:50:28.392Z,50.12
2022-09-04T12:53:26.260Z,49.37
2022-09-04T12:56:18.619Z,49.45
2022-09-04T12:59:02.172Z,47.85
2022-09-04T13:01:59.412Z,47.80
2022-09-04T13:04:56.039Z,48.45
2022-09-04T13:07:52.093Z,48.45
2022-09-04T13:10:32.950Z,49.07
2022-09-04T13:13:16.308Z,49.67
2022-09-04T13:16:04.174Z,49.39
2022-09-04T13:18:51.420Z,48.72
2022-09-04T13:21:42.621Z,48.53
2022-09-04T13:24:25.822Z,46.91
2022-09-04T13:27:21.576Z,47.89
2022-09-04T13:30:03.017Z,48.00
2022-09-04T13:33:05.917Z,47.96
2022-09-04T13:35:43.075Z,48.09
2022-09-04T13:38:17.181Z,48.54
2022-09-04T13:41:15.866Z,48.53
2022-09-04T13:44:13.496Z,48.45
2022-09-04T13:46:48.667Z,48.50
2022-09-04T13:49:24.643Z,48.00
2022-09-04T13:52:03.856Z,48.21
2022-09-04T13:54:42.665Z,48.51
2022-09-04T13:57:17.950Z,48.81
2022-09-04T13:59:50.119Z,49.19
2022-09-04T14:02:25.595Z,48.72
2022-09-04T14:04:57.965Z,48.27
2022-09-04T14:07:36.308Z,48.69
2022-09-04T14:10:22.055Z,48.92
2022-09-04T14:13:12.895Z,49.41
2022-09-04T14:16:00.024Z,49.36
2022-09-04T14:18:46.846Z,49.74
2022-09-04T14:21:20.699Z,50.08
2022-09-04T14:24:14.027Z,50.48
2022-09-04T14:26:48.163Z,50.45
2022-09-04T14:29:36.363Z,50.52
2022-09-04T14:32:32.460Z,50.56
2022-09-04T14:35:19.096Z,50.98
2022-09-04T14:38:02.499Z,51.05
2022-09-04T14:40:34.482Z,51.18
2022-09-04T14:43:25.363Z,51.60
2022-09-04T14:46:10.349Z,51.93
2022-09-04T14:48:44.699Z,51.77
2022-09-04T14:51:41.348Z,51.99
2022-09-04T14:54:19.433Z,52.34
2022-09-04T14:56:51.055Z,51.82
2022-09-04T14:59:43.659Z,52.48
2022-09-04T15:02:11.585Z,52.54
2022-09-04T15:04:49.281Z,52.67
2022-09-04T15:07:24.954Z,53.45
2022-09-04T15:09:54.861Z,54.01
2022-09-04T15:12:32.773Z,53.24
2022-09-04T15:15:07.612Z,52.99
2022-09-04T15:17:40.329Z,51.83
2022-09-04T15:20:17.104Z,52.07
2022-09-04T15:22:57.431Z,52.72
2022-09-04T15:25:47.990Z,52.59
2022-09-04T15:28:42.729Z,52.71
2022-09-04T15:31:18.652Z,53.49
2022-09-04T15:33:48.709Z,53.09
2022-09-04T15:36:22.763Z,53.20
2022-09-04T15:39:01.244Z,53.37
2022-09-04T15:41:32.419Z,53.60
2022-09-04T15:44:34.432Z,54.10
2022-09-04T15:47:17.204Z,54.13
2022-09-04T15:49:53.897Z,54.82
2022-09-04T15:52:36.859Z,55.33
2022-09-04T15:55:08.670Z,55.72
2022-09-04T15:57:40.224Z,55.72
2022-09-04T16:00:11.696Z,56.04
2022-09-04T16:02:57.049Z,56.66
2022-09-04T16:05:46.164Z,56.76
2022-09-04T16:08:41.242Z,56.04
2022-09-04T16:11:19.166Z,56.66
2022-09-04T16:13:49.906Z,57.13
2022-09-04T16:16:24.331Z,57.37
2022-09-04T16:19:24.070Z,57.98
2022-09-04T16:22:20.924Z,58.05
2022-09-04T16:24:56.116Z,58.56
2022-09-04T16:27:28.829Z,58.72
2022-09-04T16:30:02.990Z,59.21
2022-09-04T16:32:35.407Z,59.08
2022-09-04T16:35:19.552Z,59.06
2022-09-04T16:37:59.378Z,60.06
2022-09-04T16:40:33.732Z,60.11
2022-09-04T16:43:45.061Z,60.39
2022-09-04T16:46:20.466Z,61.03
2022-09-04T16:48:57.998Z,61.24
2022-09-04T16:51:42.141Z,61.42
2022-09-04T16:54:20.097Z,61.43
2022-09-04T16:57:12.923Z,61.65
2022-09-04T16:59:55.504Z,61.42
2022-09-04T17:02:51.344Z,62.78
2022-09-04T17:06:06.409Z,63.08
2022-09-04T17:08:38.357Z,62.97
2022-09-04T17:11:27.853Z,62.96
2022-09-04T17:14:08.596Z,63.24
2022-09-04T17:17:12.508Z,63.02
2022-09-04T17:20:09.080Z,63.20
2022-09-04T17:28:57.033Z,63.88
2022-09-04T17:29:02.239Z,63.48
2022-09-04T17:29:10.497Z,63.91
2022-09-04T17:31:51.311Z,63.77
2022-09-04T17:40:33.266Z,64.08
2022-09-04T17:40:48.714Z,64.48
2022-09-04T17:40:53.609Z,64.56
2022-09-04T17:43:40.105Z,65.14
2022-09-04T17:46:27.750Z,64.93
2022-09-04T17:48:56.533Z,65.32
2022-09-04T17:51:33.815Z,65.68
2022-09-04T17:54:10.505Z,65.91
2022-09-04T17:56:55.253Z,66.32
2022-09-04T17:59:45.545Z,66.74
2022-09-04T18:02:33.936Z,67.11
2022-09-04T18:05:23.640Z,67.21
2022-09-04T18:08:08.465Z,67.35
2022-09-04T18:10:54.576Z,67.34
2022-09-04T18:14:02.272Z,67.37
2022-09-04T18:16:36.792Z,67.41
2022-09-04T18:19:28.085Z,67.62
2022-09-04T18:22:25.570Z,67.81
2022-09-04T18:24:57.710Z,67.78
2022-09-04T18:28:12.453Z,67.99
2022-09-04T18:37:13.062Z,68.59
2022-09-04T18:37:18.718Z,68.79
2022-09-04T18:37:46.608Z,69.08
2022-09-04T18:40:36.083Z,69.35
2022-09-04T18:50:21.096Z,69.31
2022-09-04T18:50:45.747Z,69.19
2022-09-04T18:50:53.512Z,69.40
2022-09-04T18:52:14.140Z,69.34
2022-09-04T18:54:49.860Z,69.50
2022-09-04T18:57:34.748Z,69.95
2022-09-04T19:00:10.573Z,70.24
2022-09-04T19:02:52.981Z,70.08
2022-09-04T19:05:44.424Z,70.37
2022-09-04T19:08:28.534Z,70.67
2022-09-04T19:11:17.458Z,70.78
2022-09-04T19:14:00.751Z,71.24
2022-09-04T19:16:53.238Z,71.20
2022-09-04T19:19:31.870Z,71.48
2022-09-04T19:22:25.123Z,71.34
2022-09-04T19:25:27.676Z,71.57
2022-09-04T19:28:16.616Z,71.51
2022-09-04T19:31:11.844Z,71.61
2022-09-04T19:33:45.139Z,71.85
2022-09-04T19:36:32.421Z,72.26
2022-09-04T19:45:56.596Z,72.03
2022-09-04T19:46:15.506Z,72.37
2022-09-04T19:46:16.655Z,72.00
2022-09-04T19:49:19.366Z,72.42
2022-09-04T19:53:32.176Z,72.61
2022-09-04T19:54:37.536Z,72.46
2022-09-04T19:57:32.942Z,72.33
2022-09-04T20:00:30.932Z,72.57
2022-09-04T20:03:07.820Z,72.51
2022-09-04T20:05:40.103Z,72.56
2022-09-04T20:08:14.288Z,72.73
2022-09-04T20:10:49.986Z,72.85
2022-09-04T20:13:35.483Z,72.88
2022-09-04T20:16:22.683Z,72.90
2022-09-04T20:18:53.698Z,73.10
2022-09-04T20:21:27.698Z,73.03
2022-09-04T20:24:12.057Z,73.33
2022-09-04T20:26:56.683Z,73.51
2022-09-04T20:29:31.961Z,73.52
2022-09-04T20:32:09.160Z,73.86
2022-09-04T20:34:40.296Z,74.05
2022-09-04T20:37:22.699Z,73.90
2022-09-04T20:39:59.533Z,74.08
2022-09-04T20:42:54.133Z,74.08
2022-09-04T20:49:06.772Z,74.26
2022-09-04T20:52:45.581Z,74.38
2022-09-04T20:52:56.435Z,74.61
2022-09-04T20:54:52.024Z,74.49
2022-09-04T21:03:05.648Z,74.73
2022-09-04T21:03:22.137Z,75.15
2022-09-04T21:03:35.287Z,75.63
2022-09-04T21:06:25.674Z,75.81
2022-09-04T21:09:22.755Z,75.90
2022-09-04T21:12:14.050Z,76.09
2022-09-04T21:14:52.124Z,76.42
2022-09-04T21:17:37.421Z,76.61
2022-09-04T21:20:41.650Z,76.72
2022-09-04T21:23:41.194Z,76.56
2022-09-04T21:26:36.433Z,76.37
2022-09-04T21:29:21.928Z,76.33
2022-09-04T21:32:14.906Z,76.41
2022-09-04T21:35:25.239Z,76.51
2022-09-04T21:37:59.957Z,76.35
2022-09-04T21:40:57.229Z,76.47
2022-09-04T21:43:40.457Z,76.09
2022-09-04T21:46:23.449Z,76.30
2022-09-04T21:49:36.587Z,76.38
2022-09-04T21:52:42.590Z,75.89
2022-09-04T21:58:06.704Z,75.85
2022-09-04T22:02:30.950Z,75.99
2022-09-04T22:02:38.111Z,76.32
2022-09-04T22:04:35.488Z,76.06
2022-09-04T22:10:06.655Z,75.86
2022-09-04T22:13:27.468Z,76.20
2022-09-04T22:13:50.810Z,76.23
2022-09-04T22:16:37.347Z,76.08
2022-09-04T22:19:28.213Z,76.26
2022-09-04T22:22:37.976Z,75.93
2022-09-04T22:25:06.582Z,75.89
2022-09-04T22:28:08.621Z,76.07
2022-09-04T22:30:46.638Z,75.99
2022-09-04T22:33:50.757Z,76.06
2022-09-04T22:36:42.254Z,76.17
2022-09-04T22:39:45.284Z,75.95
2022-09-04T22:42:25.374Z,76.23
2022-09-04T22:45:16.084Z,76.32
2022-09-04T22:47:49.730Z,76.43
2022-09-04T22:50:49.501Z,76.23
2022-09-04T22:53:49.550Z,76.25
2022-09-04T22:56:34.175Z,76.21
2022-09-04T22:59:37.756Z,76.35
2022-09-04T23:02:39.925Z,76.01
2022-09-04T23:05:36.644Z,76.02
2022-09-04T23:13:52.404Z,76.04
2022-09-04T23:13:53.767Z,76.18
2022-09-04T23:14:49.101Z,75.96
2022-09-04T23:17:36.283Z,76.02
2022-09-04T23:26:32.847Z,75.79
2022-09-04T23:26:46.613Z,75.62
2022-09-04T23:27:00.408Z,76.06
2022-09-04T23:29:44.495Z,75.96
2022-09-04T23:32:28.283Z,75.97
2022-09-04T23:35:41.604Z,75.89
2022-09-04T23:39:01.092Z,76.34
2022-09-04T23:42:24.716Z,76.22
2022-09-04T23:45:29.967Z,76.28
2022-09-04T23:48:37.050Z,75.98
2022-09-04T23:51:47.265Z,76.14
2022-09-04T23:54:58.038Z,76.20
2022-09-04T23:58:21.005Z,76.40
